Time;durP1;ratioP1;P1;durP2;ratioP2;P2;SDS_P1;SDS_P2;PMS_P1;PMS_P2;Temp;Humidity;BMP_temperature;BMP_pressure;BME280_temperature;BME280_humidity;BME280_pressure;Samples;Min_cycle;Max_cycle;Signal;HPM_P1;HPM_P2
2023/04/25 00:01:51;;;;;;;;;;;;;;;15.38;43.80;99805.25;4966038;27;98459;-68
2023/04/25 00:04:17;;;;;;;;;;;;;;;15.37;43.59;99798.25;4963502;27;98154;-73
2023/04/25 00:06:45;;;;;;;;;;;;;;;15.37;43.54;99806.38;4961441;27;98142;-68
2023/04/25 00:09:11;;;;;;;;;;;;;;;15.36;43.71;99800.13;4964922;27;98279;-73
2023/04/25 00:11:38;;;;;;;;;;;;;;;15.35;43.84;99795.03;4947010;27;97885;-73
2023/04/25 00:14:06;;;;;;;;;;;;;;;15.34;43.83;99793.44;4963583;27;98307;-68
2023/04/25 00:16:33;;;;;;;;;;;;;;;15.33;43.75;99798.06;4958800;27;98224;-68
2023/04/25 00:19:00;;;;;;;;;;;;;;;15.31;44.00;99797.56;4946916;27;98740;-73
2023/04/25 00:21:26;;;;;;;;;;;;;;;15.31;43.93;99799.50;4974907;27;98334;-68
2023/04/25 00:23:56;;;;;;;;;;;;;;;15.29;43.66;99793.56;4963301;27;98267;-68
2023/04/25 00:26:22;;;;;;;;;;;;;;;15.26;43.89;99789.56;4946899;27;97910;-68
2023/04/25 00:28:49;;;;;;;;;;;;;;;15.25;43.85;99795.31;4975754;27;98832;-68
2023/04/25 00:31:15;;;;;;;;;;;;;;;15.23;43.91;99792.91;4963900;27;97963;-73
2023/04/25 00:33:42;;;;;;;;;;;;;;;15.21;43.83;99795.94;4965836;27;98434;-68
2023/04/25 00:36:08;;;;;;;;;;;;;;;15.19;43.78;99792.75;4947464;27;98072;-68
2023/04/25 00:38:36;;;;;;;;;;;;;;;15.20;43.77;99788.09;4961681;27;97984;-73
2023/04/25 00:41:02;;;;;;;;;;;;;;;15.19;43.63;99797.38;4959165;27;98029;-73
2023/04/25 00:43:28;;;;;;;;;;;;;;;15.16;43.60;99792.56;4962135;27;99058;-73
2023/04/25 00:45:57;;;;;;;;;;;;;;;15.14;43.66;99784.75;4955792;27;98091;-67
2023/04/25 00:48:23;;;;;;;;;;;;;;;15.13;43.97;99782.31;4962199;27;99223;-73
2023/04/25 00:50:54;;;;;;;;;;;;;;;15.11;43.70;99784.56;4946108;27;98185;-73
2023/04/25 00:53:21;;;;;;;;;;;;;;;15.09;43.64;99786.78;4960719;27;98202;-73
2023/04/25 00:55:47;;;;;;;;;;;;;;;15.08;43.83;99785.97;4959439;27;98256;-73
2023/04/25 00:58:14;;;;;;;;;;;;;;;15.06;43.83;99788.22;4946885;27;99598;-68
2023/04/25 01:00:41;;;;;;;;;;;;;;;15.04;43.93;99778.78;4959138;27;98236;-67
2023/04/25 01:03:07;;;;;;;;;;;;;;;15.03;43.75;99779.91;4943368;27;98701;-68
2023/04/25 01:05:33;;;;;;;;;;;;;;;15.02;43.96;99784.53;4940081;27;97995;-71
2023/04/25 01:08:00;;;;;;;;;;;;;;;15.01;43.59;99787.53;4944647;27;98349;-67
2023/04/25 01:10:26;;;;;;;;;;;;;;;14.98;43.71;99783.56;4962854;27;98168;-67
2023/04/25 01:12:53;;;;;;;;;;;;;;;14.97;43.95;99779.22;4961627;27;100254;-68
2023/04/25 01:15:19;;;;;;;;;;;;;;;14.96;43.94;99778.44;4956384;27;98315;-72
2023/04/25 01:17:46;;;;;;;;;;;;;;;14.93;43.82;99779.09;4941799;27;98057;-72
2023/04/25 01:20:13;;;;;;;;;;;;;;;14.92;43.89;99779.38;4965293;27;97917;-73
2023/04/25 01:22:39;;;;;;;;;;;;;;;14.90;43.62;99777.00;4938682;27;99926;-67
2023/04/25 01:25:06;;;;;;;;;;;;;;;14.88;43.76;99781.91;4951645;27;98687;-67
2023/04/25 01:27:32;;;;;;;;;;;;;;;14.87;44.01;99779.53;4974643;27;99638;-67
2023/04/25 01:29:58;;;;;;;;;;;;;;;14.85;43.97;99782.53;4945173;27;98062;-73
2023/04/25 01:32:25;;;;;;;;;;;;;;;14.83;44.00;99787.47;4959447;27;98527;-67
2023/04/25 01:34:51;;;;;;;;;;;;;;;14.82;43.92;99785.88;4943357;27;99942;-67
2023/04/25 01:37:17;;;;;;;;;;;;;;;14.79;43.62;99783.78;4959436;27;97843;-72
2023/04/25 01:39:43;;;;;;;;;;;;;;;14.78;44.03;99784.91;4948309;27;98390;-72
2023/04/25 01:42:09;;;;;;;;;;;;;;;14.78;43.80;99784.13;4963393;27;98275;-67
2023/04/25 01:44:36;;;;;;;;;;;;;;;14.75;43.62;99779.31;4963655;27;98274;-67
2023/04/25 01:47:03;;;;;;;;;;;;;;;14.74;44.02;99789.34;4947410;27;98089;-73
2023/04/25 01:49:29;;;;;;;;;;;;;;;14.72;43.58;99781.50;4947664;27;98196;-67
2023/04/25 01:51:55;;;;;;;;;;;;;;;14.70;43.93;99778.31;4945396;27;98020;-67
2023/04/25 01:54:22;;;;;;;;;;;;;;;14.70;43.92;99788.38;4963406;27;99974;-67
2023/04/25 01:56:52;;;;;;;;;;;;;;;14.68;43.71;99779.75;4959307;27;98848;-72
2023/04/25 01:59:21;;;;;;;;;;;;;;;14.66;43.58;99785.50;4965265;27;98267;-72
2023/04/25 02:01:47;;;;;;;;;;;;;;;14.65;43.61;99783.88;4950691;27;99906;-72
2023/04/25 02:04:14;;;;;;;;;;;;;;;14.65;43.85;99783.88;4958863;27;99743;-67
2023/04/25 02:06:40;;;;;;;;;;;;;;;14.65;43.71;99786.56;4957690;27;98274;-72
2023/04/25 02:09:06;;;;;;;;;;;;;;;14.64;43.84;99790.41;4972799;27;98077;-67
2023/04/25 02:11:33;;;;;;;;;;;;;;;14.63;43.82;99783.38;4946816;27;98169;-67
2023/04/25 02:13:59;;;;;;;;;;;;;;;14.64;43.74;99778.75;4956715;27;99065;-67
2023/04/25 02:16:26;;;;;;;;;;;;;;;14.63;43.92;99777.97;4959051;27;98389;-67
2023/04/25 02:18:53;;;;;;;;;;;;;;;14.61;43.58;99774.75;4960682;27;98207;-67
2023/04/25 02:21:19;;;;;;;;;;;;;;;14.61;43.71;99779.38;4959178;27;97961;-72
2023/04/25 02:23:48;;;;;;;;;;;;;;;14.60;43.97;99785.91;4947190;27;97960;-67
2023/04/25 02:26:14;;;;;;;;;;;;;;;14.58;43.70;99788.94;4966636;27;99209;-66
2023/04/25 02:28:41;;;;;;;;;;;;;;;14.57;43.83;99784.63;4959704;27;98383;-72
2023/04/25 02:31:07;;;;;;;;;;;;;;;14.57;43.56;99786.53;4963210;27;98041;-72
2023/04/25 02:33:34;;;;;;;;;;;;;;;14.56;44.04;99784.94;4977257;27;98297;-66
2023/04/25 02:36:00;;;;;;;;;;;;;;;14.56;43.75;99782.22;4963545;27;98130;-67
2023/04/25 02:38:26;;;;;;;;;;;;;;;14.55;43.74;99780.63;4946349;27;99804;-72
2023/04/25 02:40:53;;;;;;;;;;;;;;;14.54;43.74;99774.41;4960399;27;98620;-67
2023/04/25 02:43:20;;;;;;;;;;;;;;;14.51;44.05;99772.31;4949043;27;98067;-72
2023/04/25 02:45:47;;;;;;;;;;;;;;;14.51;43.65;99768.81;4947879;27;99282;-67
2023/04/25 02:48:14;;;;;;;;;;;;;;;14.49;43.83;99772.59;4945772;27;99759;-67
2023/04/25 02:50:41;;;;;;;;;;;;;;;14.49;43.98;99772.59;4946306;27;97881;-72
2023/04/25 02:53:07;;;;;;;;;;;;;;;14.47;44.00;99772.09;4946912;27;98388;-66
2023/04/25 02:55:33;;;;;;;;;;;;;;;14.46;43.74;99759.66;4975057;27;98419;-67
2023/04/25 02:58:00;;;;;;;;;;;;;;;14.45;43.96;99766.16;4950268;27;98035;-72
2023/04/25 03:00:26;;;;;;;;;;;;;;;14.45;44.03;99765.38;4941618;27;98117;-67
2023/04/25 03:02:52;;;;;;;;;;;;;;;14.44;43.72;99755.66;4944364;27;99765;-66
2023/04/25 03:05:19;;;;;;;;;;;;;;;14.42;43.86;99765.97;4946273;27;98284;-72
2023/04/25 03:07:45;;;;;;;;;;;;;;;14.42;43.90;99765.97;4947541;27;98131;-72
2023/04/25 03:10:11;;;;;;;;;;;;;;;14.40;43.92;99760.09;4964691;27;98956;-67
2023/04/25 03:12:37;;;;;;;;;;;;;;;14.40;43.75;99765.50;4989424;27;97925;-69
2023/04/25 03:15:04;;;;;;;;;;;;;;;14.37;43.74;99766.91;4941558;27;98580;-67
2023/04/25 03:17:30;;;;;;;;;;;;;;;14.36;43.63;99759.91;4947415;27;97984;-67
2023/04/25 03:19:57;;;;;;;;;;;;;;;14.35;44.01;99763.72;4958231;27;98222;-66
2023/04/25 03:22:23;;;;;;;;;;;;;;;14.33;43.91;99760.50;4962645;27;100697;-72
2023/04/25 03:24:50;;;;;;;;;;;;;;;14.31;43.69;99746.47;4957229;27;98210;-67
2023/04/25 03:27:16;;;;;;;;;;;;;;;14.29;43.79;99758.72;4958659;27;97900;-72
2023/04/25 03:29:42;;;;;;;;;;;;;;;14.28;43.99;99765.28;4956351;27;98335;-67
2023/04/25 03:32:09;;;;;;;;;;;;;;;14.25;43.96;99758.56;4945349;27;98105;-66
2023/04/25 03:34:36;;;;;;;;;;;;;;;14.24;43.79;99767.78;4944144;27;98243;-72
2023/04/25 03:37:02;;;;;;;;;;;;;;;14.21;44.10;99758.34;4944719;27;98009;-71
2023/04/25 03:39:29;;;;;;;;;;;;;;;14.19;44.10;99765.22;4960256;27;99262;-72
2023/04/25 03:41:56;;;;;;;;;;;;;;;14.17;43.69;99762.78;4944766;27;98204;-72
2023/04/25 03:44:22;;;;;;;;;;;;;;;14.15;43.91;99759.59;4947765;27;98207;-72
2023/04/25 03:46:48;;;;;;;;;;;;;;;14.13;43.78;99761.81;4945636;27;98320;-66
2023/04/25 03:49:14;;;;;;;;;;;;;;;14.13;43.96;99763.72;4962548;27;97972;-72
2023/04/25 03:51:42;;;;;;;;;;;;;;;14.11;43.88;99769.47;4946500;27;97922;-72
2023/04/25 03:54:08;;;;;;;;;;;;;;;14.09;43.76;99766.25;4945175;27;98155;-67
2023/04/25 03:56:34;;;;;;;;;;;;;;;14.08;44.13;99770.06;4946783;27;97885;-67
2023/04/25 03:59:00;;;;;;;;;;;;;;;14.07;44.01;99767.66;4940849;27;98216;-72
2023/04/25 04:01:27;;;;;;;;;;;;;;;14.06;44.01;99761.44;4960767;27;98119;-72
2023/04/25 04:03:53;;;;;;;;;;;;;;;14.05;43.78;99764.47;4977897;27;98492;-67
2023/04/25 04:06:20;;;;;;;;;;;;;;;14.04;44.07;99773.72;4972464;27;98248;-72
2023/04/25 04:08:47;;;;;;;;;;;;;;;14.03;44.03;99774.78;4945167;27;98157;-72
2023/04/25 04:11:13;;;;;;;;;;;;;;;14.02;43.99;99782.13;4958577;27;98036;-72
2023/04/25 04:13:40;;;;;;;;;;;;;;;14.00;43.74;99778.94;4960020;27;98299;-66
2023/04/25 04:16:06;;;;;;;;;;;;;;;14.00;44.00;99776.22;4957808;27;98304;-72
2023/04/25 04:18:33;;;;;;;;;;;;;;;13.99;43.73;99778.13;4963014;27;98549;-72
2023/04/25 04:20:59;;;;;;;;;;;;;;;14.00;43.67;99784.34;4974856;27;98087;-72
2023/04/25 04:23:27;;;;;;;;;;;;;;;14.00;43.67;99787.06;4957451;27;98094;-66
2023/04/25 04:25:55;;;;;;;;;;;;;;;14.00;43.88;99785.16;4947866;27;98081;-72
2023/04/25 04:28:21;;;;;;;;;;;;;;;14.02;43.69;99786.75;4957598;27;98057;-72
2023/04/25 04:30:50;;;;;;;;;;;;;;;14.03;43.85;99785.63;4945345;27;98385;-72
2023/04/25 04:33:19;;;;;;;;;;;;;;;14.03;43.98;99782.91;4956789;27;98173;-66
2023/04/25 04:35:46;;;;;;;;;;;;;;;14.03;43.63;99791.03;4941732;27;98284;-72
2023/04/25 04:38:15;;;;;;;;;;;;;;;14.04;43.79;99788.06;4944114;27;97882;-66
2023/04/25 04:40:42;;;;;;;;;;;;;;;14.05;43.69;99786.94;4956561;27;98038;-72
2023/04/25 04:43:10;;;;;;;;;;;;;;;14.08;43.97;99790.94;4943028;27;99208;-67
2023/04/25 04:45:38;;;;;;;;;;;;;;;14.08;43.65;99789.03;4953105;27;99034;-66
2023/04/25 04:48:05;;;;;;;;;;;;;;;14.11;43.93;99793.84;4958712;27;98026;-67
2023/04/25 04:50:32;;;;;;;;;;;;;;;14.14;43.57;99797.84;4936218;27;102900;-72
2023/04/25 04:52:58;;;;;;;;;;;;;;;14.16;43.85;99796.44;4953459;27;99468;-67
2023/04/25 04:55:25;;;;;;;;;;;;;;;14.19;43.50;99797.75;4958084;27;98007;-67
2023/04/25 04:57:51;;;;;;;;;;;;;;;14.21;43.68;99796.31;4939086;27;98708;-66
2023/04/25 05:00:18;;;;;;;;;;;;;;;14.24;43.59;99806.53;4942785;27;99574;-72
2023/04/25 05:02:44;;;;;;;;;;;;;;;14.27;43.53;99807.84;4961028;27;98621;-66
2023/04/25 05:05:10;;;;;;;;;;;;;;;14.32;43.77;99809.63;4942372;27;98160;-67
2023/04/25 05:07:36;;;;;;;;;;;;;;;14.36;43.48;99806.00;4965904;27;98420;-72
2023/04/25 05:10:03;;;;;;;;;;;;;;;14.40;43.64;99809.69;4950252;27;97925;-73
2023/04/25 05:12:30;;;;;;;;;;;;;;;14.44;43.39;99807.16;4960861;27;98223;-66
2023/04/25 05:14:56;;;;;;;;;;;;;;;14.48;43.27;99803.53;4950274;27;98234;-66
2023/04/25 05:17:23;;;;;;;;;;;;;;;14.53;43.23;99810.75;4965145;27;97920;-72
2023/04/25 05:19:49;;;;;;;;;;;;;;;14.59;43.20;99803.31;4943519;27;98001;-66
2023/04/25 05:22:16;;;;;;;;;;;;;;;14.65;43.31;99802.84;4962837;27;98847;-72
2023/04/25 05:24:42;;;;;;;;;;;;;;;14.73;43.18;99804.00;4949004;27;98040;-66
2023/04/25 05:27:08;;;;;;;;;;;;;;;14.79;43.01;99808.22;4958312;27;98542;-66
2023/04/25 05:29:35;;;;;;;;;;;;;;;14.88;43.24;99813.66;4979357;27;99396;-66
2023/04/25 05:32:01;;;;;;;;;;;;;;;14.96;42.98;99808.28;4950504;27;97922;-72
2023/04/25 05:34:27;;;;;;;;;;;;;;;15.07;42.75;99805.31;4949439;27;98375;-66
2023/04/25 05:36:55;;;;;;;;;;;;;;;15.18;43.00;99810.16;4965600;27;98398;-66
2023/04/25 05:39:21;;;;;;;;;;;;;;;15.33;42.88;99813.56;4965197;27;98303;-72
2023/04/25 05:41:47;;;;;;;;;;;;;;;15.46;42.89;99816.16;4967463;27;98212;-67
2023/04/25 05:44:15;;;;;;;;;;;;;;;15.59;42.82;99825.28;4958813;27;99283;-66
2023/04/25 05:46:41;;;;;;;;;;;;;;;15.73;42.63;99822.47;4945555;27;98064;-66
2023/04/25 05:49:07;;;;;;;;;;;;;;;15.87;42.63;99809.53;4960300;27;98304;-66
2023/04/25 05:51:34;;;;;;;;;;;;;;;16.02;42.55;99810.19;4965137;27;99490;-72
2023/04/25 05:54:00;;;;;;;;;;;;;;;16.14;42.27;99810.34;4967497;27;98023;-66
2023/04/25 05:56:26;;;;;;;;;;;;;;;16.30;42.30;99813.38;4963640;27;98312;-72
2023/04/25 05:58:52;;;;;;;;;;;;;;;16.47;42.33;99805.22;4945356;27;98109;-72
2023/04/25 06:01:18;;;;;;;;;;;;;;;16.62;42.14;99812.06;4959632;27;98797;-67
2023/04/25 06:03:45;;;;;;;;;;;;;;;16.80;42.17;99813.66;4950922;27;97936;-66
2023/04/25 06:06:12;;;;;;;;;;;;;;;16.98;42.18;99805.44;4975875;27;98269;-71
2023/04/25 06:08:39;;;;;;;;;;;;;;;17.14;41.90;99804.59;4943384;27;98347;-72
2023/04/25 06:11:05;;;;;;;;;;;;;;;17.33;41.84;99800.63;4960482;27;98514;-66
2023/04/25 06:13:32;;;;;;;;;;;;;;;17.50;41.92;99803.28;4962825;27;98233;-72
2023/04/25 06:15:59;;;;;;;;;;;;;;;17.70;41.85;99809.91;4960090;27;98242;-66
2023/04/25 06:18:25;;;;;;;;;;;;;;;17.88;41.75;99805.97;4947437;27;98150;-72
2023/04/25 06:20:51;;;;;;;;;;;;;;;18.08;41.54;99818.00;4962750;27;97902;-72
2023/04/25 06:23:18;;;;;;;;;;;;;;;18.31;41.64;99820.38;4960923;27;98130;-72
2023/04/25 06:25:44;;;;;;;;;;;;;;;18.50;41.32;99812.50;4978651;27;98286;-67
2023/04/25 06:28:11;;;;;;;;;;;;;;;18.72;41.32;99808.63;4965018;27;100612;-72
2023/04/25 06:30:37;;;;;;;;;;;;;;;18.94;41.32;99809.34;4962669;27;98148;-72
2023/04/25 06:33:03;;;;;;;;;;;;;;;19.16;41.25;99810.84;4948390;27;97939;-72
2023/04/25 06:35:29;;;;;;;;;;;;;;;19.36;41.03;99813.47;4962229;27;100175;-66
2023/04/25 06:37:55;;;;;;;;;;;;;;;19.61;41.01;99802.53;4961045;27;98599;-72
2023/04/25 06:40:22;;;;;;;;;;;;;;;19.92;40.86;99812.84;4960585;27;97907;-70
2023/04/25 06:42:49;;;;;;;;;;;;;;;20.27;40.64;99820.50;4945428;27;98089;-66
2023/04/25 06:45:15;;;;;;;;;;;;;;;20.62;40.52;99815.25;4978754;27;98039;-72
2023/04/25 06:47:42;;;;;;;;;;;;;;;20.96;40.29;99816.56;4963758;27;104205;-72
2023/04/25 06:50:09;;;;;;;;;;;;;;;21.35;40.21;99822.25;4949442;27;98925;-73
2023/04/25 06:52:35;;;;;;;;;;;;;;;21.66;40.10;99821.41;4964475;27;98196;-66
2023/04/25 06:55:03;;;;;;;;;;;;;;;22.11;39.88;99813.75;4963894;27;98440;-72
2023/04/25 06:57:30;;;;;;;;;;;;;;;22.52;39.63;99817.75;4942759;27;100282;-72
2023/04/25 06:59:57;;;;;;;;;;;;;;;22.88;39.50;99816.44;4962923;27;98132;-67
2023/04/25 07:02:23;;;;;;;;;;;;;;;23.28;39.33;99820.66;4941297;27;99203;-73
2023/04/25 07:04:50;;;;;;;;;;;;;;;23.64;39.31;99815.72;4946044;27;98338;-73
2023/04/25 07:07:17;;;;;;;;;;;;;;;23.99;38.97;99818.19;4961947;27;98558;-73
2023/04/25 07:09:43;;;;;;;;;;;;;;;24.32;39.26;99816.63;4945840;27;98190;-73
2023/04/25 07:12:09;;;;;;;;;;;;;;;24.73;38.76;99821.06;4948691;27;98260;-67
2023/04/25 07:14:36;;;;;;;;;;;;;;;24.97;38.77;99829.94;4958950;27;97962;-67
2023/04/25 07:17:02;;;;;;;;;;;;;;;25.39;38.71;99829.56;4961671;27;98304;-73
2023/04/25 07:19:29;;;;;;;;;;;;;;;25.28;39.04;99827.88;4957233;27;99004;-67
2023/04/25 07:21:56;;;;;;;;;;;;;;;24.93;39.84;99831.88;4945176;27;97966;-73
2023/04/25 07:24:22;;;;;;;;;;;;;;;25.22;39.56;99830.19;4960954;27;100009;-73
2023/04/25 07:26:48;;;;;;;;;;;;;;;25.98;38.85;99820.47;4945391;27;98119;-67
2023/04/25 07:29:15;;;;;;;;;;;;;;;25.97;39.14;99827.16;4962564;27;99745;-73
2023/04/25 07:31:42;;;;;;;;;;;;;;;26.55;38.53;99826.25;4961102;27;98126;-67
2023/04/25 07:34:08;;;;;;;;;;;;;;;27.11;38.32;99828.34;4939863;27;98184;-67
2023/04/25 07:36:35;;;;;;;;;;;;;;;27.84;37.66;99835.41;4946834;27;98004;-73
2023/04/25 07:39:01;;;;;;;;;;;;;;;28.08;37.76;99833.75;4948683;27;97949;-74
2023/04/25 07:41:27;;;;;;;;;;;;;;;26.87;39.75;99829.88;4947276;27;97891;-67
2023/04/25 07:43:53;;;;;;;;;;;;;;;27.39;38.95;99833.09;4960940;27;98254;-74
2023/04/25 07:46:20;;;;;;;;;;;;;;;28.43;38.03;99843.94;4943892;27;98055;-68
2023/04/25 07:48:46;;;;;;;;;;;;;;;28.55;38.29;99846.25;4948359;27;98212;-73
2023/04/25 07:51:13;;;;;;;;;;;;;;;29.47;37.54;99843.22;4947159;27;98424;-68
2023/04/25 07:53:40;;;;;;;;;;;;;;;29.79;37.19;99840.16;4964342;27;98424;-74
2023/04/25 07:56:06;;;;;;;;;;;;;;;30.64;36.72;99834.78;4962939;27;97995;-74
2023/04/25 07:58:33;;;;;;;;;;;;;;;29.53;38.23;99845.16;4962572;27;98156;-68
2023/04/25 08:00:59;;;;;;;;;;;;;;;30.28;37.79;99836.06;4948162;27;97969;-74
2023/04/25 08:03:26;;;;;;;;;;;;;;;30.90;37.20;99834.03;4959978;27;98301;-74
2023/04/25 08:05:52;;;;;;;;;;;;;;;30.63;37.74;99841.56;4957953;27;100642;-68
2023/04/25 08:08:19;;;;;;;;;;;;;;;30.20;38.38;99847.69;4938637;28;98193;-68
2023/04/25 08:10:47;;;;;;;;;;;;;;;30.67;37.93;99843.09;4943922;28;97972;-68
2023/04/25 08:13:13;;;;;;;;;;;;;;;30.27;38.54;99844.81;4961297;27;99522;-69
2023/04/25 08:15:40;;;;;;;;;;;;;;;30.81;37.87;99850.47;4971231;27;98003;-75
2023/04/25 08:18:07;;;;;;;;;;;;;;;32.23;36.50;99852.81;4976068;27;98084;-75
2023/04/25 08:20:34;;;;;;;;;;;;;;;33.83;35.06;99855.84;4963893;28;98105;-68
2023/04/25 08:23:00;;;;;;;;;;;;;;;33.67;36.08;99845.47;4961824;27;97972;-75
2023/04/25 08:25:26;;;;;;;;;;;;;;;34.42;35.75;99845.41;4972547;27;98067;-69
2023/04/25 08:27:53;;;;;;;;;;;;;;;35.04;35.18;99854.31;4955643;27;98424;-75
2023/04/25 08:30:20;;;;;;;;;;;;;;;36.62;34.14;99853.13;4960116;27;97981;-76
2023/04/25 08:32:48;;;;;;;;;;;;;;;36.81;34.55;99856.81;4958314;27;99025;-76
2023/04/25 08:35:17;;;;;;;;;;;;;;;37.45;34.82;99845.00;4934130;27;98200;-69
2023/04/25 08:37:43;;;;;;;;;;;;;;;35.61;36.85;99854.47;4955870;28;98209;-76
2023/04/25 08:40:11;;;;;;;;;;;;;;;34.12;38.41;99863.47;4962194;27;98180;-69
2023/04/25 08:42:37;;;;;;;;;;;;;;;33.04;39.50;99856.25;4961961;27;98117;-69
2023/04/25 08:45:04;;;;;;;;;;;;;;;32.47;39.28;99850.72;4958254;27;98066;-69
2023/04/25 08:47:30;;;;;;;;;;;;;;;32.16;39.12;99852.16;4978029;27;98161;-76
2023/04/25 08:49:57;;;;;;;;;;;;;;;33.22;37.72;99856.59;4945380;27;98089;-69
2023/04/25 08:52:24;;;;;;;;;;;;;;;31.94;39.38;99852.56;4962137;27;98431;-76
2023/04/25 08:54:50;;;;;;;;;;;;;;;31.03;40.27;99856.50;4940056;27;98493;-68
2023/04/25 08:57:18;;;;;;;;;;;;;;;30.16;40.84;99864.41;4962575;27;98260;-75
2023/04/25 08:59:45;;;;;;;;;;;;;;;29.40;41.40;99866.31;4956303;27;98278;-75
2023/04/25 09:02:15;;;;;;;;;;;;;;;28.70;41.50;99860.81;4943803;27;98210;-68
2023/04/25 09:04:43;;;;;;;;;;;;;;;28.08;41.75;99856.72;4938744;28;100329;-68
2023/04/25 09:07:10;;;;;;;;;;;;;;;27.62;41.91;99867.84;4964889;27;98123;-69
2023/04/25 09:09:36;;;;;;;;;;;;;;;27.55;41.56;99870.59;4947183;28;98236;-68
2023/04/25 09:12:03;;;;;;;;;;;;;;;26.85;42.24;99873.72;4926733;28;98142;-75
2023/04/25 09:14:30;;;;;;;;;;;;;;;26.31;42.68;99877.44;4926486;28;97986;-75
2023/04/25 09:16:55;;;;;;;;;;;;;;;25.92;42.50;99878.03;4925810;28;99355;-68
2023/04/25 09:19:31;;;;;;;;;;;;;;;25.66;42.52;99887.28;4957388;28;98184;-68
2023/04/25 09:21:59;;;;;;;;;;;;;;;25.35;42.59;99886.66;4935672;28;98560;-75
2023/04/25 09:24:43;;;;;;;;;;;;;;;24.93;42.96;99890.56;4924292;28;98211;-75
2023/04/25 09:27:10;;;;;;;;;;;;;;;24.48;43.11;99897.94;4942648;28;99121;-74
2023/04/25 09:29:38;;;;;;;;;;;;;;;24.15;43.22;99895.88;4919598;28;98167;-68
2023/04/25 09:32:20;;;;;;;;;;;;;;;23.85;43.31;99892.28;4926022;28;98200;-67
2023/04/25 09:34:50;;;;;;;;;;;;;;;23.77;42.76;99896.88;4938691;28;98028;-67
2023/04/25 09:37:20;;;;;;;;;;;;;;;23.96;42.44;99902.28;4926532;28;99094;-74
2023/04/25 09:39:47;;;;;;;;;;;;;;;24.20;41.82;99903.78;4936229;28;98074;-68
2023/04/25 09:42:15;;;;;;;;;;;;;;;23.78;42.36;99901.25;4941305;28;98172;-75
2023/04/25 09:44:45;;;;;;;;;;;;;;;23.38;42.94;99912.72;4926716;28;98245;-74
2023/04/25 09:47:12;;;;;;;;;;;;;;;23.00;43.03;99917.97;4934184;28;99806;-75
2023/04/25 09:49:42;;;;;;;;;;;;;;;22.69;43.08;99912.63;4920144;28;98108;-74
2023/04/25 09:52:09;;;;;;;;;;;;;;;22.42;43.26;99911.66;4924581;28;99550;-74
2023/04/25 09:54:38;;;;;;;;;;;;;;;22.22;43.26;99908.09;4942237;28;98079;-68
2023/04/25 09:57:13;;;;;;;;;;;;;;;22.05;43.10;99910.06;4925304;28;98887;-74
2023/04/25 09:59:44;;;;;;;;;;;;;;;21.81;43.29;99918.50;4925854;28;98046;-74
2023/04/25 10:02:11;;;;;;;;;;;;;;;21.54;43.41;99928.44;4939056;28;98219;-67
2023/04/25 10:04:38;;;;;;;;;;;;;;;21.30;43.44;99926.63;4935304;28;98355;-68
2023/04/25 10:07:06;;;;;;;;;;;;;;;21.15;43.41;99922.72;4925278;28;98561;-74
2023/04/25 10:09:35;;;;;;;;;;;;;;;21.16;43.27;99921.56;4955581;28;98228;-67
2023/04/25 10:12:03;;;;;;;;;;;;;;;21.98;41.97;99920.88;4958501;28;98150;-74
2023/04/25 10:14:31;;;;;;;;;;;;;;;22.11;41.94;99929.00;4955061;28;99732;-74
2023/04/25 10:16:58;;;;;;;;;;;;;;;21.91;42.26;99928.13;4925722;28;98304;-74
2023/04/25 10:19:26;;;;;;;;;;;;;;;21.65;42.44;99924.00;4956489;28;97963;-74
2023/04/25 10:22:07;;;;;;;;;;;;;;;21.39;42.69;99932.75;4920807;28;97807;-67
2023/04/25 10:24:35;;;;;;;;;;;;;;;21.12;43.02;99928.88;4959768;28;98423;-74
2023/04/25 10:27:01;;;;;;;;;;;;;;;20.90;43.09;99934.94;4962101;28;98041;-74
2023/04/25 10:29:27;;;;;;;;;;;;;;;20.69;43.24;99935.13;4958810;28;97862;-67
2023/04/25 10:31:54;;;;;;;;;;;;;;;20.50;43.34;99939.28;4957196;28;98256;-67
2023/04/25 10:34:23;;;;;;;;;;;;;;;20.32;43.30;99946.97;4940585;28;98016;-74
2023/04/25 10:36:53;;;;;;;;;;;;;;;20.14;43.42;99951.06;4929127;28;97981;-67
2023/04/25 10:39:28;;;;;;;;;;;;;;;20.03;43.49;99947.22;4942982;28;98353;-74
2023/04/25 10:41:57;;;;;;;;;;;;;;;19.99;43.22;99952.56;4976455;27;98763;-67
2023/04/25 10:44:27;;;;;;;;;;;;;;;20.08;43.08;99950.53;4941904;28;98392;-67
2023/04/25 10:46:56;;;;;;;;;;;;;;;20.16;42.72;99953.47;4926842;28;98306;-74
2023/04/25 10:49:30;;;;;;;;;;;;;;;20.25;42.48;99954.94;4922753;28;97986;-67
2023/04/25 10:52:24;;;;;;;;;;;;;;;20.13;42.80;99962.38;4973863;27;98265;-74
2023/04/25 10:54:55;;;;;;;;;;;;;;;19.95;43.14;99965.31;4936258;28;98125;-75
2023/04/25 10:57:35;;;;;;;;;;;;;;;19.83;42.91;99963.38;4920478;28;98135;-68
2023/04/25 11:00:05;;;;;;;;;;;;;;;19.79;43.06;99972.63;4975051;27;98107;-74
2023/04/25 11:02:31;;;;;;;;;;;;;;;19.83;43.05;99973.53;4955068;28;98036;-75
2023/04/25 11:04:58;;;;;;;;;;;;;;;19.89;42.94;99972.19;4927513;28;98609;-67
2023/04/25 11:07:30;;;;;;;;;;;;;;;19.92;42.86;99979.69;4951375;28;97994;-74
2023/04/25 11:09:58;;;;;;;;;;;;;;;19.93;42.75;99973.09;4978754;27;99899;-67
2023/04/25 11:12:25;;;;;;;;;;;;;;;20.03;42.58;99980.03;4962643;27;98299;-67
2023/04/25 11:14:58;;;;;;;;;;;;;;;20.17;42.53;99985.16;4960820;28;100430;-67
2023/04/25 11:17:26;;;;;;;;;;;;;;;20.24;42.53;99991.66;4955054;27;98224;-67
2023/04/25 11:19:55;;;;;;;;;;;;;;;20.34;42.28;99990.38;4962170;28;98076;-74
2023/04/25 11:22:22;;;;;;;;;;;;;;;20.43;42.29;99988.31;4962776;27;99487;-75
2023/04/25 11:24:50;;;;;;;;;;;;;;;20.45;42.36;99993.47;4939626;28;98278;-75
2023/04/25 11:27:16;;;;;;;;;;;;;;;20.31;42.53;99988.34;4958290;27;99491;-75
2023/04/25 11:29:43;;;;;;;;;;;;;;;20.18;42.78;99998.50;4938212;27;98250;-68
2023/04/25 11:32:10;;;;;;;;;;;;;;;20.11;42.62;100009.22;4957974;27;97875;-68
2023/04/25 11:34:37;;;;;;;;;;;;;;;20.07;42.78;100002.81;4962153;28;98134;-68
2023/04/25 11:37:04;;;;;;;;;;;;;;;20.09;42.59;100006.03;4939510;27;97978;-67
2023/04/25 11:39:30;;;;;;;;;;;;;;;20.06;42.68;100007.50;4961043;28;98106;-67
2023/04/25 11:41:58;;;;;;;;;;;;;;;20.08;42.54;100007.16;4962166;27;100098;-73
2023/04/25 11:44:24;;;;;;;;;;;;;;;20.40;42.25;100007.38;4961441;27;98258;-67
2023/04/25 11:46:50;;;;;;;;;;;;;;;20.52;42.01;100001.91;4956434;28;98113;-68
2023/04/25 11:49:18;;;;;;;;;;;;;;;20.72;41.82;100009.16;4958045;27;98004;-74
2023/04/25 11:51:47;;;;;;;;;;;;;;;21.03;41.46;100008.50;4941768;28;98159;-74
2023/04/25 11:54:14;;;;;;;;;;;;;;;21.12;41.46;100007.56;4958234;27;98148;-68
2023/04/25 11:56:44;;;;;;;;;;;;;;;21.29;41.39;100013.50;4945634;28;97966;-68
2023/04/25 11:59:12;;;;;;;;;;;;;;;21.40;41.37;100011.09;4961106;27;98125;-68
2023/04/25 12:01:40;;;;;;;;;;;;;;;21.33;41.66;100022.66;4945831;28;99028;-74
2023/04/25 12:04:14;;;;;;;;;;;;;;;21.42;41.58;100021.69;4961656;27;98168;-68
2023/04/25 12:06:41;;;;;;;;;;;;;;;21.50;41.60;100018.81;4960848;27;98616;-75
2023/04/25 12:09:12;;;;;;;;;;;;;;;21.53;41.50;100015.34;4939813;27;97996;-75
2023/04/25 12:11:58;;;;;;;;;;;;;;;21.59;41.40;100021.41;4943012;27;98407;-68
2023/04/25 12:14:28;;;;;;;;;;;;;;;21.42;41.70;100016.22;4960734;28;98143;-75
2023/04/25 12:16:57;;;;;;;;;;;;;;;21.28;41.82;100017.41;4953781;28;97833;-75
2023/04/25 12:19:25;;;;;;;;;;;;;;;21.20;42.02;100017.56;4962181;27;98040;-75
2023/04/25 12:21:52;;;;;;;;;;;;;;;21.23;41.90;100017.66;4962724;27;98517;-68
2023/04/25 12:24:24;;;;;;;;;;;;;;;21.33;41.71;100013.63;4956126;27;98179;-68
2023/04/25 12:27:01;;;;;;;;;;;;;;;21.43;41.62;100018.63;4937713;27;98033;-68
2023/04/25 12:29:29;;;;;;;;;;;;;;;21.36;41.76;100029.41;4989991;27;97987;-75
2023/04/25 12:31:56;;;;;;;;;;;;;;;21.31;41.75;100029.63;4957080;28;98340;-75
2023/04/25 12:34:23;;;;;;;;;;;;;;;21.13;42.04;100033.81;4974336;27;98104;-74
2023/04/25 12:36:50;;;;;;;;;;;;;;;20.94;42.21;100043.44;4961351;27;98434;-67
2023/04/25 12:39:19;;;;;;;;;;;;;;;20.88;42.20;100039.38;4956114;27;99739;-67
2023/04/25 12:41:46;;;;;;;;;;;;;;;20.95;42.10;100047.00;4973320;27;97941;-67
2023/04/25 12:44:13;;;;;;;;;;;;;;;20.95;42.01;100049.75;4961228;27;98191;-68
2023/04/25 12:46:40;;;;;;;;;;;;;;;20.94;42.03;100034.44;4957409;28;99666;-75